Time;durP1;ratioP1;P1;durP2;ratioP2;P2;SDS_P1;SDS_P2;PMS_P1;PMS_P2;Temp;Humidity;BMP_temperature;BMP_pressure;BME280_temperature;BME280_humidity;BME280_pressure;Samples;Min_cycle;Max_cycle;Signal;HPM_P1;HPM_P2
2021/03/21 00:01:28;;;;;;;8.00;2.80;;;3.80;99.90;;;;;;5001733;28;20251;-59
2021/03/21 00:03:55;;;;;;;9.73;2.70;;;3.80;99.90;;;;;;4997608;28;20309;-59
2021/03/21 00:06:21;;;;;;;5.70;2.53;;;3.80;99.90;;;;;;4993874;28;20196;-60
2021/03/21 00:08:48;;;;;;;4.30;1.93;;;3.80;99.90;;;;;;5010049;28;20197;-60
2021/03/21 00:11:15;;;;;;;6.23;2.50;;;3.80;99.90;;;;;;5013107;28;20235;-59
2021/03/21 00:13:42;;;;;;;6.50;2.47;;;3.90;99.90;;;;;;4995997;28;20243;-57
2021/03/21 00:16:09;;;;;;;6.60;2.73;;;3.90;99.90;;;;;;4993308;28;20244;-59
2021/03/21 00:18:37;;;;;;;5.37;2.80;;;3.90;99.90;;;;;;5009079;28;20224;-58
2021/03/21 00:21:04;;;;;;;9.43;2.30;;;3.90;99.90;;;;;;5012036;28;20314;-59
2021/03/21 00:23:31;;;;;;;7.30;2.60;;;3.90;99.90;;;;;;5012691;28;20245;-60
2021/03/21 00:25:57;;;;;;;5.50;2.50;;;3.90;99.90;;;;;;5009034;28;20268;-60
2021/03/21 00:28:28;;;;;;;4.87;1.97;;;3.90;99.90;;;;;;4993334;28;20630;-60
2021/03/21 00:30:55;;;;;;;4.50;2.20;;;4.00;99.90;;;;;;5010681;28;20696;-60
2021/03/21 00:33:26;;;;;;;5.77;2.03;;;4.00;99.90;;;;;;5012344;28;20264;-59
2021/03/21 00:35:53;;;;;;;4.50;2.30;;;4.00;99.90;;;;;;5012500;28;20196;-59
2021/03/21 00:38:23;;;;;;;7.27;2.20;;;4.10;99.90;;;;;;5005680;28;20332;-59
2021/03/21 00:40:50;;;;;;;6.77;2.20;;;4.10;99.90;;;;;;5001055;28;20189;-61
2021/03/21 00:43:17;;;;;;;6.73;2.30;;;4.10;99.90;;;;;;5010014;28;20200;-60
2021/03/21 00:45:45;;;;;;;4.23;1.83;;;4.10;99.90;;;;;;4993153;28;20221;-59
2021/03/21 00:48:13;;;;;;;3.57;1.80;;;4.10;99.90;;;;;;4992861;28;20198;-60
2021/03/21 00:50:40;;;;;;;3.10;1.63;;;4.10;99.90;;;;;;4992452;28;20245;-60
2021/03/21 00:53:06;;;;;;;4.03;1.80;;;4.10;99.90;;;;;;5005140;28;20256;-60
2021/03/21 00:55:33;;;;;;;4.20;2.00;;;4.10;99.90;;;;;;5011882;28;20185;-59
2021/03/21 00:57:59;;;;;;;5.47;2.03;;;4.10;99.90;;;;;;5010504;28;20240;-59
2021/03/21 01:00:28;;;;;;;5.23;2.10;;;4.00;99.90;;;;;;5011926;28;20200;-60
2021/03/21 01:02:56;;;;;;;5.90;1.37;;;4.00;99.90;;;;;;4992188;28;20283;-59
2021/03/21 01:05:30;;;;;;;3.53;1.80;;;4.00;99.90;;;;;;4992659;28;20243;-58
2021/03/21 01:07:58;;;;;;;3.97;1.50;;;4.00;99.90;;;;;;4992242;28;20227;-60
2021/03/21 01:10:26;;;;;;;5.37;1.87;;;4.00;99.90;;;;;;4992631;28;20229;-58
2021/03/21 01:12:54;;;;;;;4.40;1.40;;;4.00;99.90;;;;;;4992267;28;20648;-59
2021/03/21 01:15:21;;;;;;;3.50;1.77;;;4.00;99.90;;;;;;5004082;28;20304;-60
2021/03/21 01:17:49;;;;;;;2.77;1.77;;;4.00;99.90;;;;;;5011514;28;20616;-58
2021/03/21 01:20:19;;;;;;;4.13;1.90;;;3.90;99.90;;;;;;5011842;28;20193;-59
2021/03/21 01:22:45;;;;;;;5.17;2.30;;;4.00;99.90;;;;;;5002689;28;20224;-59
2021/03/21 01:25:13;;;;;;;5.07;2.00;;;3.90;99.90;;;;;;4992191;28;20201;-59
2021/03/21 01:27:39;;;;;;;5.20;2.27;;;3.80;99.90;;;;;;4996104;28;20276;-60
2021/03/21 01:30:08;;;;;;;7.90;2.20;;;3.90;99.90;;;;;;5011721;28;20255;-60
2021/03/21 01:32:34;;;;;;;4.53;1.83;;;3.80;99.90;;;;;;5006431;28;20268;-60
2021/03/21 01:35:01;;;;;;;4.23;1.77;;;3.80;99.90;;;;;;4991980;28;20654;-59
2021/03/21 01:37:28;;;;;;;4.70;1.80;;;3.80;99.90;;;;;;5003586;28;20274;-59
2021/03/21 01:39:54;;;;;;;6.10;1.87;;;3.80;99.90;;;;;;5010326;28;20664;-60
2021/03/21 01:42:21;;;;;;;4.90;1.80;;;3.80;99.90;;;;;;5011665;28;20232;-59
2021/03/21 01:44:48;;;;;;;3.37;1.33;;;3.70;99.90;;;;;;5003485;28;20669;-59
2021/03/21 01:47:23;;;;;;;3.00;1.37;;;3.70;99.90;;;;;;4996963;28;20204;-59
2021/03/21 01:49:50;;;;;;;4.10;1.10;;;3.80;99.90;;;;;;4991710;28;20605;-58
2021/03/21 01:52:34;;;;;;;3.87;1.13;;;3.90;99.90;;;;;;5008518;28;20319;-59
2021/03/21 01:55:02;;;;;;;3.70;0.80;;;3.90;99.90;;;;;;5011113;28;20184;-59
2021/03/21 01:57:29;;;;;;;2.50;0.90;;;4.00;99.90;;;;;;4995415;28;20279;-59
2021/03/21 01:59:56;;;;;;;1.30;0.67;;;4.00;99.90;;;;;;4991329;28;20737;-59
2021/03/21 02:02:22;;;;;;;1.53;1.00;;;4.00;99.90;;;;;;5007672;28;20630;-59
2021/03/21 02:04:49;;;;;;;2.30;0.87;;;4.00;99.90;;;;;;5010838;28;20228;-60
2021/03/21 02:07:27;;;;;;;2.13;1.10;;;3.90;99.90;;;;;;4997390;28;20225;-60
2021/03/21 02:10:03;;;;;;;3.00;0.97;;;3.80;99.90;;;;;;4991979;28;20208;-59
2021/03/21 02:12:40;;;;;;;3.77;0.90;;;3.70;99.90;;;;;;4991726;28;20241;-59
2021/03/21 02:15:15;;;;;;;2.23;0.90;;;3.70;99.90;;;;;;4991915;28;20208;-60
2021/03/21 02:17:47;;;;;;;2.03;0.80;;;3.60;99.90;;;;;;4995746;28;20550;-60
2021/03/21 02:20:46;;;;;;;1.67;0.87;;;3.60;99.90;;;;;;5010236;28;20189;-60
2021/03/21 02:23:15;;;;;;;4.07;0.70;;;3.40;99.90;;;;;;5010101;28;20220;-59
2021/03/21 02:26:26;;;;;;;2.57;0.97;;;3.50;99.90;;;;;;5014458;28;20196;-59
2021/03/21 02:29:14;;;;;;;2.30;0.90;;;3.40;99.90;;;;;;5014575;28;20212;-59
2021/03/21 02:31:44;;;;;;;1.43;0.83;;;3.30;99.90;;;;;;5014158;28;20287;-60
2021/03/21 02:34:18;;;;;;;1.20;0.70;;;3.30;99.90;;;;;;5014592;28;20651;-59
2021/03/21 02:36:48;;;;;;;1.37;0.80;;;3.30;99.90;;;;;;5012843;28;20217;-60
2021/03/21 02:39:23;;;;;;;1.47;0.80;;;3.30;99.90;;;;;;4995542;28;20272;-59
2021/03/21 02:41:54;;;;;;;1.97;0.87;;;3.30;99.90;;;;;;5013287;28;20219;-59
2021/03/21 02:44:26;;;;;;;2.17;0.70;;;3.20;99.90;;;;;;5006736;28;20269;-60
2021/03/21 02:46:57;;;;;;;1.90;0.70;;;3.30;99.90;;;;;;5005537;28;20217;-59
2021/03/21 02:49:28;;;;;;;2.37;0.80;;;3.30;99.90;;;;;;5014075;28;20295;-59
2021/03/21 02:51:59;;;;;;;2.60;0.83;;;3.20;99.90;;;;;;5014131;28;20295;-60
2021/03/21 02:54:29;;;;;;;2.77;0.90;;;3.20;99.90;;;;;;5006639;28;20328;-59
2021/03/21 02:57:10;;;;;;;3.97;0.50;;;3.10;99.90;;;;;;4994820;28;20618;-58
2021/03/21 02:59:41;;;;;;;0.93;0.60;;;3.10;99.90;;;;;;4995449;28;20186;-59
2021/03/21 03:02:12;;;;;;;0.80;0.60;;;3.10;99.90;;;;;;5014170;28;20280;-61
2021/03/21 03:04:42;;;;;;;1.60;0.83;;;3.10;99.90;;;;;;5012584;28;20268;-60
2021/03/21 03:07:14;;;;;;;1.67;0.53;;;3.10;99.90;;;;;;5000856;28;20273;-59
2021/03/21 03:09:46;;;;;;;1.70;0.40;;;3.00;99.90;;;;;;4994579;28;20273;-58
2021/03/21 03:12:19;;;;;;;2.70;0.87;;;2.90;99.90;;;;;;5002832;28;20295;-61
2021/03/21 03:14:47;;;;;;;1.80;0.40;;;3.00;99.90;;;;;;5013648;28;20507;-59
2021/03/21 03:17:22;;;;;;;1.83;0.80;;;3.00;99.90;;;;;;5013479;28;20181;-59
2021/03/21 03:19:54;;;;;;;3.83;0.90;;;3.00;99.90;;;;;;5013044;28;20707;-60
2021/03/21 03:22:25;;;;;;;2.97;0.83;;;3.00;99.90;;;;;;5013173;28;20232;-59
2021/03/21 03:25:05;;;;;;;1.70;1.00;;;2.80;99.90;;;;;;5013982;28;20597;-59
2021/03/21 03:27:36;;;;;;;1.63;0.50;;;2.80;99.90;;;;;;5002942;28;20219;-59
2021/03/21 03:30:10;;;;;;;3.03;0.67;;;2.80;99.90;;;;;;4994074;28;20269;-59
2021/03/21 03:32:36;;;;;;;0.83;0.50;;;2.70;99.90;;;;;;4994034;28;20535;-58
2021/03/21 03:35:06;;;;;;;2.60;0.60;;;2.70;99.90;;;;;;4993450;28;20252;-59
2021/03/21 03:37:33;;;;;;;2.00;0.60;;;2.80;99.90;;;;;;5008050;28;20268;-59
2021/03/21 03:39:59;;;;;;;1.67;0.60;;;2.90;99.90;;;;;;5012653;28;20221;-59
2021/03/21 03:42:36;;;;;;;1.63;0.63;;;2.70;99.90;;;;;;5013051;28;20243;-59
2021/03/21 03:45:09;;;;;;;2.83;0.90;;;2.80;99.90;;;;;;5013402;28;20300;-59
2021/03/21 03:47:48;;;;;;;1.20;0.80;;;2.70;99.90;;;;;;5010183;28;20326;-60
2021/03/21 03:50:24;;;;;;;2.73;0.73;;;2.70;99.90;;;;;;5004052;28;20268;-60
2021/03/21 03:53:05;;;;;;;2.13;0.67;;;2.80;99.90;;;;;;4993134;28;20209;-60
2021/03/21 03:55:37;;;;;;;0.83;0.40;;;2.70;99.90;;;;;;4993666;28;20225;-60
2021/03/21 03:58:08;;;;;;;2.23;0.60;;;2.70;99.90;;;;;;5010795;28;20668;-59
2021/03/21 04:00:39;;;;;;;0.80;0.60;;;2.80;99.90;;;;;;5012572;28;20217;-59
2021/03/21 04:03:15;;;;;;;3.30;0.83;;;2.70;99.90;;;;;;5001626;28;20652;-59
2021/03/21 04:05:48;;;;;;;0.70;0.50;;;2.70;99.90;;;;;;5006966;28;20659;-59
2021/03/21 04:08:23;;;;;;;2.20;0.83;;;2.60;99.90;;;;;;5011420;28;20311;-61
2021/03/21 04:11:02;;;;;;;3.07;0.77;;;2.60;99.90;;;;;;5012415;28;20212;-61
2021/03/21 04:13:37;;;;;;;3.43;0.70;;;2.70;99.90;;;;;;5007076;28;20201;-59
2021/03/21 04:16:05;;;;;;;3.10;0.70;;;2.70;99.90;;;;;;4993070;28;20239;-59
2021/03/21 04:18:37;;;;;;;1.13;0.40;;;2.70;99.90;;;;;;4993105;28;20249;-59
2021/03/21 04:21:09;;;;;;;1.43;0.60;;;2.70;99.90;;;;;;4993016;28;20240;-59
2021/03/21 04:23:41;;;;;;;1.90;0.60;;;2.60;99.90;;;;;;4993097;28;20304;-59
2021/03/21 04:26:12;;;;;;;1.47;0.63;;;2.60;99.90;;;;;;4993353;28;20228;-59
2021/03/21 04:28:42;;;;;;;1.93;0.50;;;2.60;99.90;;;;;;4992994;28;20652;-60
2021/03/21 04:31:13;;;;;;;2.53;0.77;;;2.50;99.90;;;;;;5003520;28;20253;-60
2021/03/21 04:33:43;;;;;;;2.10;0.53;;;2.50;99.90;;;;;;5012069;28;20294;-60
2021/03/21 04:36:13;;;;;;;1.73;0.60;;;2.50;99.90;;;;;;5002510;28;20712;-59
2021/03/21 04:38:44;;;;;;;1.43;0.70;;;2.50;99.90;;;;;;4992510;28;20681;-59
2021/03/21 04:41:15;;;;;;;2.27;0.50;;;2.50;99.90;;;;;;5002165;28;20298;-60
2021/03/21 04:43:44;;;;;;;1.20;0.40;;;2.50;99.90;;;;;;5012434;28;20232;-59
2021/03/21 04:46:17;;;;;;;2.00;0.63;;;2.50;99.90;;;;;;5002678;28;20299;-59
2021/03/21 04:48:44;;;;;;;1.60;0.60;;;2.50;99.90;;;;;;4992099;28;20670;-58
2021/03/21 04:51:16;;;;;;;1.63;0.60;;;2.40;99.90;;;;;;4998885;28;20552;-60
2021/03/21 04:53:47;;;;;;;1.33;0.60;;;2.30;99.90;;;;;;5012325;28;20296;-59
2021/03/21 04:56:19;;;;;;;2.37;0.57;;;2.20;99.90;;;;;;5011880;28;20284;-59
2021/03/21 04:58:49;;;;;;;1.80;0.70;;;2.30;99.90;;;;;;5012269;28;20269;-59
2021/03/21 05:01:20;;;;;;;4.03;0.93;;;2.30;99.90;;;;;;5008598;28;20186;-62
2021/03/21 05:03:53;;;;;;;2.03;0.70;;;2.30;99.90;;;;;;4992487;28;20198;-60
2021/03/21 05:06:25;;;;;;;3.67;0.80;;;2.20;99.90;;;;;;4993050;28;20194;-59
2021/03/21 05:08:57;;;;;;;1.50;0.60;;;2.20;99.90;;;;;;5012019;28;20185;-59
2021/03/21 05:11:33;;;;;;;4.37;0.80;;;2.20;99.90;;;;;;5010549;28;20222;-59
2021/03/21 05:14:03;;;;;;;2.13;1.17;;;2.10;99.90;;;;;;5011816;28;20501;-61
2021/03/21 05:16:38;;;;;;;1.37;0.50;;;2.30;99.90;;;;;;5011069;28;20794;-60
2021/03/21 05:19:12;;;;;;;3.57;0.80;;;2.30;99.90;;;;;;5009783;28;20219;-59
2021/03/21 05:21:46;;;;;;;0.50;0.50;;;2.20;99.90;;;;;;5011550;28;20224;-59
2021/03/21 05:24:18;;;;;;;4.17;0.67;;;2.40;99.90;;;;;;5011362;28;20215;-60
2021/03/21 05:26:50;;;;;;;1.80;0.50;;;2.40;99.90;;;;;;5011166;28;20217;-61
2021/03/21 05:29:47;;;;;;;2.17;0.63;;;2.40;99.90;;;;;;5011284;28;20217;-60
2021/03/21 05:32:18;;;;;;;2.13;0.70;;;2.40;99.90;;;;;;5011657;28;20205;-60
2021/03/21 05:34:45;;;;;;;3.63;0.77;;;2.40;99.90;;;;;;4997151;28;20233;-59
2021/03/21 05:37:24;;;;;;;1.00;0.50;;;2.40;99.90;;;;;;4992197;28;20189;-60
2021/03/21 05:39:58;;;;;;;0.87;0.40;;;2.40;99.90;;;;;;4992333;28;20239;-60
2021/03/21 05:43:04;;;;;;;1.77;0.67;;;2.40;99.90;;;;;;5000886;28;20276;-59
2021/03/21 05:45:55;;;;;;;0.63;0.60;;;2.50;99.90;;;;;;4992201;28;20208;-59
2021/03/21 05:48:41;;;;;;;1.77;0.60;;;2.50;99.90;;;;;;4991793;28;20657;-59
2021/03/21 05:51:18;;;;;;;2.23;0.80;;;2.50;99.90;;;;;;5006406;28;20189;-60
2021/03/21 05:54:21;;;;;;;1.27;0.57;;;2.60;99.90;;;;;;5011163;28;20552;-60
2021/03/21 05:57:30;;;;;;;1.40;0.50;;;2.50;99.90;;;;;;5009162;28;20268;-59
2021/03/21 06:00:13;;;;;;;2.27;0.60;;;2.60;99.90;;;;;;5013602;28;20231;-60
2021/03/21 06:03:09;;;;;;;2.27;0.50;;;2.60;99.90;;;;;;5015560;28;20189;-60
2021/03/21 06:06:07;;;;;;;0.77;0.50;;;2.70;99.90;;;;;;5014731;28;20362;-59
2021/03/21 06:08:42;;;;;;;1.53;0.50;;;2.70;99.90;;;;;;4978732;28;20209;-61
2021/03/21 06:11:32;;;;;;;3.03;0.83;;;2.70;99.90;;;;;;4995868;28;20225;-60
2021/03/21 06:14:36;;;;;;;3.07;0.60;;;2.80;99.90;;;;;;4998986;28;20252;-61
2021/03/21 06:17:25;;;;;;;1.47;0.60;;;2.80;99.90;;;;;;4995694;28;20235;-59
2021/03/21 06:20:25;;;;;;;1.90;0.50;;;2.80;99.90;;;;;;4983293;28;20281;-60
2021/03/21 06:23:13;;;;;;;2.93;0.40;;;2.90;99.90;;;;;;4955750;28;20707;-60
2021/03/21 06:26:02;;;;;;;1.47;0.60;;;2.90;99.90;;;;;;4995443;28;20248;-60
2021/03/21 06:28:55;;;;;;;1.90;0.43;;;2.90;99.90;;;;;;5010629;28;20271;-60
2021/03/21 06:31:57;;;;;;;0.83;0.43;;;3.00;99.90;;;;;;5014253;28;20271;-62
2021/03/21 06:34:33;;;;;;;0.73;0.50;;;3.00;99.90;;;;;;5015145;28;20228;-60
2021/03/21 06:37:03;;;;;;;0.47;0.40;;;3.00;99.90;;;;;;5014935;28;20185;-60
2021/03/21 06:40:02;;;;;;;2.10;0.50;;;3.00;99.90;;;;;;5014899;28;20268;-60
2021/03/21 06:42:51;;;;;;;0.30;0.30;;;3.10;99.90;;;;;;5009607;28;20205;-61
2021/03/21 06:45:54;;;;;;;0.60;0.40;;;3.10;99.90;;;;;;4995429;28;20224;-60
2021/03/21 06:48:54;;;;;;;0.73;0.60;;;3.10;99.90;;;;;;4985109;28;20221;-59
2021/03/21 06:51:45;;;;;;;2.10;0.67;;;3.10;99.90;;;;;;4993369;28;20228;-60
2021/03/21 06:54:30;;;;;;;0.97;0.40;;;3.20;99.90;;;;;;5012544;28;20259;-59
2021/03/21 06:57:41;;;;;;;1.33;0.60;;;3.20;99.90;;;;;;5014543;28;20335;-60
2021/03/21 07:00:41;;;;;;;2.97;0.60;;;3.20;99.90;;;;;;4995306;28;20226;-60
2021/03/21 07:03:47;;;;;;;2.63;0.50;;;3.20;99.90;;;;;;4991560;28;20248;-60
2021/03/21 07:06:48;;;;;;;0.53;0.40;;;3.30;99.90;;;;;;4992522;28;20192;-59
2021/03/21 07:09:53;;;;;;;1.30;0.40;;;3.30;99.90;;;;;;5010632;28;20271;-61
2021/03/21 07:12:57;;;;;;;2.13;0.63;;;3.40;99.90;;;;;;5003081;28;20349;-60
2021/03/21 07:15:57;;;;;;;5.30;0.60;;;3.40;99.90;;;;;;4960037;28;20264;-60
2021/03/21 07:18:54;;;;;;;1.33;0.50;;;3.40;99.90;;;;;;4995299;28;20217;-60
2021/03/21 07:22:07;;;;;;;1.50;0.50;;;3.40;99.90;;;;;;4991248;28;20276;-59
2021/03/21 07:25:03;;;;;;;1.07;0.30;;;3.50;99.90;;;;;;5005701;28;20221;-60
2021/03/21 07:27:48;;;;;;;4.37;0.70;;;3.50;99.90;;;;;;5007189;28;20217;-60
2021/03/21 07:30:21;;;;;;;0.87;0.40;;;3.50;99.90;;;;;;4999837;28;20225;-60
2021/03/21 07:33:20;;;;;;;3.63;0.80;;;3.50;99.90;;;;;;4994789;28;20216;-61
2021/03/21 07:36:05;;;;;;;1.23;0.60;;;3.60;99.90;;;;;;5008720;28;20197;-61
2021/03/21 07:39:07;;;;;;;1.33;0.40;;;3.60;99.90;;;;;;4994831;28;20213;-59
2021/03/21 07:41:49;;;;;;;1.20;0.60;;;3.60;99.90;;;;;;5002949;28;20262;-59
2021/03/21 07:44:43;;;;;;;0.30;0.30;;;3.70;99.90;;;;;;4997214;28;20273;-62
2021/03/21 07:47:32;;;;;;;0.87;0.40;;;3.70;99.90;;;;;;4994274;28;20238;-59
2021/03/21 07:50:18;;;;;;;1.07;0.63;;;3.70;99.90;;;;;;4994376;28;20560;-59
2021/03/21 07:53:17;;;;;;;0.40;0.40;;;3.70;99.90;;;;;;5010338;28;20283;-60
2021/03/21 07:55:51;;;;;;;0.43;0.30;;;3.80;99.90;;;;;;5002483;28;20235;-60
2021/03/21 07:58:22;;;;;;;0.90;0.43;;;3.80;99.90;;;;;;4994072;28;20589;-60
2021/03/21 08:00:49;;;;;;;1.30;0.40;;;3.90;99.90;;;;;;4995497;28;20220;-61
2021/03/21 08:03:27;;;;;;;1.90;0.60;;;3.90;99.90;;;;;;4994251;28;20505;-60
2021/03/21 08:05:55;;;;;;;1.27;0.40;;;3.90;99.90;;;;;;4994079;28;20196;-60
2021/03/21 08:08:24;;;;;;;1.00;0.40;;;3.90;99.90;;;;;;5001244;28;20190;-59
2021/03/21 08:10:56;;;;;;;0.83;0.43;;;4.00;99.90;;;;;;5010063;28;20216;-61
2021/03/21 08:13:38;;;;;;;1.70;0.50;;;4.00;99.90;;;;;;4993979;28;20213;-61
2021/03/21 08:16:05;;;;;;;1.33;0.30;;;4.00;99.90;;;;;;4993711;28;20186;-60
2021/03/21 08:18:34;;;;;;;0.50;0.47;;;4.00;99.90;;;;;;4998844;28;20217;-60
2021/03/21 08:21:03;;;;;;;0.57;0.30;;;4.10;99.90;;;;;;4994550;28;20252;-61
2021/03/21 08:23:33;;;;;;;2.17;0.50;;;4.10;99.90;;;;;;4997541;28;20192;-61
2021/03/21 08:26:04;;;;;;;1.03;0.50;;;4.10;99.90;;;;;;4995714;28;20626;-60
2021/03/21 08:28:40;;;;;;;2.73;0.50;;;4.10;99.90;;;;;;5006725;28;20189;-61
2021/03/21 08:31:08;;;;;;;1.10;0.33;;;4.10;99.90;;;;;;4996013;28;20193;-61
2021/03/21 08:33:39;;;;;;;1.70;0.60;;;4.10;99.90;;;;;;5008108;28;20638;-62
2021/03/21 08:36:19;;;;;;;3.20;0.60;;;4.20;99.90;;;;;;4997974;28;20235;-60
2021/03/21 08:39:02;;;;;;;1.47;0.40;;;4.20;99.90;;;;;;5004860;28;20212;-60
2021/03/21 08:41:31;;;;;;;0.40;0.40;;;4.30;99.90;;;;;;5012075;28;20260;-59
2021/03/21 08:44:01;;;;;;;0.53;0.37;;;4.30;99.90;;;;;;5010992;28;20228;-59
2021/03/21 08:46:28;;;;;;;0.20;0.20;;;4.20;99.90;;;;;;5009559;28;20694;-60
2021/03/21 08:49:15;;;;;;;0.33;0.33;;;4.30;99.90;;;;;;5008859;28;20189;-60
2021/03/21 08:51:42;;;;;;;1.37;0.43;;;4.30;99.90;;;;;;5008353;28;20619;-59
2021/03/21 08:54:19;;;;;;;4.50;0.50;;;4.30;99.90;;;;;;4993105;28;20343;-59
2021/03/21 08:57:00;;;;;;;0.40;0.40;;;4.50;99.90;;;;;;4992880;28;20221;-59
2021/03/21 08:59:31;;;;;;;0.57;0.37;;;4.40;99.90;;;;;;4993053;28;20223;-59
2021/03/21 09:02:01;;;;;;;0.73;0.53;;;4.40;99.90;;;;;;4994107;28;20190;-60
2021/03/21 09:04:27;;;;;;;1.80;0.40;;;4.40;99.90;;;;;;4994735;28;20228;-60
2021/03/21 09:06:54;;;;;;;0.47;0.30;;;4.40;99.90;;;;;;5007947;28;20521;-60
2021/03/21 09:09:24;;;;;;;0.97;0.40;;;4.50;99.90;;;;;;4993316;28;20303;-59
2021/03/21 09:11:53;;;;;;;0.77;0.50;;;4.50;99.90;;;;;;5001498;28;20682;-63
2021/03/21 09:14:27;;;;;;;0.70;0.30;;;4.50;99.90;;;;;;4992751;28;20197;-59
2021/03/21 09:16:59;;;;;;;1.47;0.47;;;4.50;99.90;;;;;;4993078;28;20213;-60
2021/03/21 09:19:29;;;;;;;1.80;0.40;;;4.50;99.90;;;;;;5010364;28;20185;-60
2021/03/21 09:21:55;;;;;;;1.40;0.47;;;4.60;99.90;;;;;;5012029;28;20660;-60
2021/03/21 09:24:26;;;;;;;2.50;0.40;;;4.60;99.90;;;;;;5011519;28;20229;-60
2021/03/21 09:26:53;;;;;;;0.57;0.30;;;4.60;99.90;;;;;;5008398;28;20213;-60
2021/03/21 09:29:32;;;;;;;1.03;0.50;;;4.60;99.90;;;;;;5011502;28;20201;-59
2021/03/21 09:32:06;;;;;;;0.80;0.33;;;4.70;99.90;;;;;;5011966;28;20208;-59
2021/03/21 09:34:57;;;;;;;0.70;0.30;;;4.70;99.90;;;;;;5001408;28;20660;-61
2021/03/21 09:37:27;;;;;;;2.47;0.50;;;4.70;99.90;;;;;;4994342;28;20244;-61
2021/03/21 09:39:59;;;;;;;0.50;0.33;;;4.70;99.90;;;;;;4992704;28;20186;-60
2021/03/21 09:42:26;;;;;;;0.37;0.30;;;4.80;99.90;;;;;;4995459;28;20218;-60
2021/03/21 09:44:54;;;;;;;4.40;0.70;;;4.70;99.90;;;;;;4992753;28;20221;-61
2021/03/21 09:47:37;;;;;;;2.83;0.50;;;4.70;99.90;;;;;;5007550;28;20185;-61
2021/03/21 09:50:36;;;;;;;1.97;0.77;;;4.70;99.90;;;;;;4992561;28;20225;-62
2021/03/21 09:53:21;;;;;;;9.07;0.60;;;4.70;99.90;;;;;;4985363;28;20225;-62
2021/03/21 09:55:50;;;;;;;3.07;0.70;;;4.80;99.90;;;;;;4992741;28;20241;-61
2021/03/21 09:58:26;;;;;;;2.80;0.67;;;4.90;99.90;;;;;;4999002;28;20225;-60
2021/03/21 10:00:59;;;;;;;0.40;0.40;;;5.00;99.90;;;;;;5004717;28;20242;-59
2021/03/21 10:03:31;;;;;;;0.97;0.50;;;5.00;99.90;;;;;;4993489;28;20244;-61
2021/03/21 10:06:04;;;;;;;1.50;0.40;;;5.10;99.90;;;;;;4992385;28;20647;-63
2021/03/21 10:08:49;;;;;;;0.70;0.60;;;5.10;99.90;;;;;;4993735;28;20192;-62
2021/03/21 10:11:23;;;;;;;0.50;0.50;;;5.20;99.90;;;;;;4992760;28;20189;-61
2021/03/21 10:13:49;;;;;;;2.43;0.50;;;5.40;99.90;;;;;;4998890;28;20296;-61
2021/03/21 10:16:33;;;;;;;1.70;0.70;;;5.40;99.90;;;;;;5010898;28;20251;-61
2021/03/21 10:19:02;;;;;;;0.50;0.40;;;5.10;99.90;;;;;;5011124;28;20235;-61
2021/03/21 10:21:37;;;;;;;2.63;0.57;;;5.20;99.90;;;;;;5011297;28;20189;-62
2021/03/21 10:24:35;;;;;;;0.40;0.40;;;5.00;99.90;;;;;;5011217;28;20220;-61
2021/03/21 10:27:38;;;;;;;3.23;0.57;;;4.90;99.90;;;;;;5011139;28;20193;-62
2021/03/21 10:30:27;;;;;;;2.33;0.47;;;5.10;99.90;;;;;;5011551;28;20283;-62
2021/03/21 10:33:35;;;;;;;0.80;0.50;;;5.30;99.90;;;;;;5011355;28;20209;-60
2021/03/21 10:36:02;;;;;;;2.57;0.60;;;5.30;99.90;;;;;;4972785;28;20197;-61
2021/03/21 10:38:53;;;;;;;2.23;0.50;;;5.50;99.90;;;;;;5011702;28;20199;-61
2021/03/21 10:41:56;;;;;;;1.40;0.60;;;5.50;99.90;;;;;;5010262;28;20225;-61
2021/03/21 10:44:38;;;;;;;2.83;0.60;;;5.60;99.90;;;;;;5005335;28;20196;-63
2021/03/21 10:47:09;;;;;;;1.73;0.43;;;5.50;99.90;;;;;;5014288;28;20185;-63
2021/03/21 10:49:51;;;;;;;2.13;0.43;;;5.50;99.90;;;;;;5015779;28;20264;-62
2021/03/21 10:52:31;;;;;;;1.07;0.60;;;5.50;99.90;;;;;;5008058;28;20188;-62
2021/03/21 10:55:32;;;;;;;0.40;0.40;;;5.50;99.90;;;;;;5014955;28;20212;-62
2021/03/21 10:58:28;;;;;;;0.83;0.50;;;5.50;99.90;;;;;;5015182;28;20180;-61
2021/03/21 11:01:24;;;;;;;1.23;0.63;;;5.40;99.90;;;;;;5014416;28;20247;-62
2021/03/21 11:04:01;;;;;;;1.17;0.50;;;5.10;99.90;;;;;;5013544;28;20652;-60
2021/03/21 11:06:31;;;;;;;0.83;0.60;;;5.20;99.90;;;;;;5012491;28;20598;-63
2021/03/21 11:09:09;;;;;;;1.23;0.57;;;5.50;99.90;;;;;;5013868;28;20204;-62
2021/03/21 11:11:37;;;;;;;0.80;0.60;;;5.60;99.90;;;;;;5011641;28;20231;-62
2021/03/21 11:14:18;;;;;;;0.87;0.50;;;5.40;99.90;;;;;;5014170;28;20255;-61
2021/03/21 11:16:54;;;;;;;2.70;0.73;;;5.40;99.90;;;;;;5012305;28;20250;-62
2021/03/21 11:19:22;;;;;;;4.73;0.80;;;5.30;99.90;;;;;;5013960;28;20667;-63
2021/03/21 11:21:49;;;;;;;1.43;0.80;;;5.30;99.90;;;;;;5013162;28;20189;-61
2021/03/21 11:24:25;;;;;;;5.83;1.50;;;5.40;99.90;;;;;;5014232;28;20297;-61
2021/03/21 11:26:53;;;;;;;0.93;0.80;;;5.60;99.90;;;;;;5014131;28;20542;-61
2021/03/21 11:29:29;;;;;;;3.03;0.87;;;5.60;99.90;;;;;;5013461;28;20223;-60
2021/03/21 11:32:01;;;;;;;3.57;0.80;;;5.70;99.90;;;;;;5013620;28;20192;-61
2021/03/21 11:34:31;;;;;;;1.33;0.60;;;5.60;99.90;;;;;;5014242;28;20284;-62
2021/03/21 11:37:05;;;;;;;1.90;0.60;;;5.70;99.90;;;;;;5014376;28;20185;-61
2021/03/21 11:39:41;;;;;;;0.60;0.50;;;5.70;99.90;;;;;;5013959;28;20276;-61
2021/03/21 11:42:30;;;;;;;0.70;0.53;;;5.70;99.90;;;;;;5014109;28;20200;-61
2021/03/21 11:45:36;;;;;;;1.13;0.57;;;5.80;99.90;;;;;;5005560;28;20231;-62
2021/03/21 11:48:14;;;;;;;2.70;0.70;;;5.90;99.90;;;;;;5008732;28;20235;-62
2021/03/21 11:50:44;;;;;;;3.30;0.63;;;5.70;99.90;;;;;;5014438;28;20189;-62
2021/03/21 11:53:15;;;;;;;1.23;0.67;;;5.90;99.90;;;;;;5014483;28;20220;-60
2021/03/21 11:55:44;;;;;;;0.90;0.70;;;5.70;99.90;;;;;;5013918;28;20231;-62
2021/03/21 11:58:18;;;;;;;2.53;0.60;;;5.80;99.90;;;;;;5013356;28;20621;-62
2021/03/21 12:00:54;;;;;;;3.00;1.10;;;5.90;99.90;;;;;;5013979;28;20220;-61
2021/03/21 12:03:23;;;;;;;4.03;0.80;;;5.80;99.90;;;;;;5014205;28;20243;-62
2021/03/21 12:05:59;;;;;;;3.47;0.90;;;5.80;99.90;;;;;;5014079;28;20197;-61
2021/03/21 12:08:34;;;;;;;6.37;2.60;;;6.00;99.90;;;;;;5013935;28;20353;-60
2021/03/21 12:11:16;;;;;;;1.70;0.60;;;6.10;99.90;;;;;;5013365;28;20220;-61
2021/03/21 12:13:43;;;;;;;1.70;0.70;;;5.90;99.90;;;;;;5013586;28;20673;-62
2021/03/21 12:16:37;;;;;;;1.20;0.67;;;6.00;99.90;;;;;;5013074;28;20640;-60
2021/03/21 12:19:06;;;;;;;2.67;0.80;;;6.20;99.90;;;;;;5013656;28;20486;-61
2021/03/21 12:21:37;;;;;;;3.13;0.70;;;6.20;99.90;;;;;;5013887;28;20197;-61
2021/03/21 12:24:11;;;;;;;0.60;0.57;;;6.20;99.90;;;;;;5013719;28;20590;-62
2021/03/21 12:26:54;;;;;;;0.60;0.50;;;6.20;99.90;;;;;;5013371;28;20192;-61
2021/03/21 12:29:34;;;;;;;0.53;0.50;;;6.40;99.90;;;;;;5013055;28;20263;-61
2021/03/21 12:32:29;;;;;;;2.47;0.90;;;6.10;99.90;;;;;;5013179;28;20561;-62
2021/03/21 12:34:57;;;;;;;1.63;1.10;;;6.10;99.90;;;;;;5013537;28;20323;-61
2021/03/21 12:37:27;;;;;;;4.43;0.50;;;6.00;99.90;;;;;;5014032;28;20556;-61
2021/03/21 12:40:09;;;;;;;1.47;0.70;;;6.00;99.90;;;;;;5013287;28;20193;-64
2021/03/21 12:42:38;;;;;;;1.50;0.60;;;6.00;99.90;;;;;;5014058;28;20202;-61
2021/03/21 12:45:12;;;;;;;3.67;0.67;;;5.90;99.90;;;;;;5013565;28;20588;-61
2021/03/21 12:47:41;;;;;;;1.77;0.40;;;5.90;99.90;;;;;;5012988;28;20583;-60
2021/03/21 12:50:53;;;;;;;2.50;0.60;;;5.80;99.20;;;;;;5012746;28;20236;-61
2021/03/21 12:53:23;;;;;;;3.63;0.60;;;6.00;99.90;;;;;;5002774;28;20213;-61
2021/03/21 12:55:50;;;;;;;1.30;0.63;;;5.80;99.90;;;;;;5013439;28;20196;-60
2021/03/21 12:58:19;;;;;;;3.60;1.00;;;5.80;99.90;;;;;;5012745;28;20204;-61
2021/03/21 13:00:46;;;;;;;1.33;0.60;;;5.90;99.90;;;;;;5012867;28;20232;-61
2021/03/21 13:03:23;;;;;;;1.77;0.57;;;6.10;99.90;;;;;;5013148;28;20516;-61
2021/03/21 13:05:51;;;;;;;1.03;0.53;;;6.30;99.90;;;;;;5013668;28;20187;-62
2021/03/21 13:08:18;;;;;;;2.03;0.43;;;6.50;99.90;;;;;;5013370;28;20207;-61
2021/03/21 13:10:44;;;;;;;2.73;0.60;;;6.30;99.90;;;;;;5013386;28;20201;-61
2021/03/21 13:13:11;;;;;;;1.60;0.70;;;6.00;99.90;;;;;;5013440;28;20220;-62
2021/03/21 13:15:39;;;;;;;4.03;0.70;;;5.90;99.90;;;;;;5013103;28;20661;-61
2021/03/21 13:18:06;;;;;;;0.57;0.57;;;5.80;99.90;;;;;;5012450;28;20201;-61
2021/03/21 13:20:33;;;;;;;2.77;0.87;;;5.70;99.60;;;;;;5012325;28;20226;-62
2021/03/21 13:23:00;;;;;;;1.27;0.67;;;6.20;98.90;;;;;;5012334;28;20236;-62
2021/03/21 13:25:31;;;;;;;2.43;0.60;;;6.80;98.50;;;;;;5012766;28;20228;-61
2021/03/21 13:28:00;;;;;;;2.57;0.70;;;7.80;98.60;;;;;;5012523;28;20189;-61
2021/03/21 13:30:30;;;;;;;3.97;0.60;;;7.50;98.20;;;;;;4992936;28;20253;-62
2021/03/21 13:32:58;;;;;;;4.27;0.73;;;7.70;98.30;;;;;;4992998;28;20217;-62
2021/03/21 13:35:27;;;;;;;3.53;0.80;;;8.70;97.70;;;;;;4992590;28;20703;-63
2021/03/21 13:37:53;;;;;;;3.40;0.40;;;8.60;96.80;;;;;;4993187;28;20193;-61
2021/03/21 13:40:24;;;;;;;2.93;0.70;;;7.60;96.10;;;;;;4992696;28;20236;-61
2021/03/21 13:42:50;;;;;;;1.07;0.50;;;7.70;96.80;;;;;;4992768;28;20201;-61
2021/03/21 13:45:19;;;;;;;2.77;0.60;;;7.60;96.80;;;;;;4993186;28;20236;-62